Hampton Beach, New Hampshire
Current Conditions -  °F | °C
As of 9:58 AM on Thursday 30 Oct 2014 (Local Time) from KPSM Reporting Station
Broken Clouds Broken Clouds  
Wind Chill:   Ceiling: 8000
Heat Index:   Visibility: 10mi
Dew Point:   Wind: 8mph
Humidity: 74%   Direction: 280°W
Pressure: 29.91"   Gusts: NA
Location:  42.9284°N, 70.8566°W
Report Text: KPSM 301358Z 28007KT 10SM BKN080 09/04 A2991 RMK AO2A SLP132 T00880044
Loading
Personal Weather Stations






























Interactive Weather Map
Tropical Storm Tracking
New forecast layout! Learn more

10-Day Weather Forecast

Advertisements
Track Severe Weather on mobile